createdAt,value
2023-03-15T00:02:12.745Z,98951.06
2023-03-15T00:12:34.539Z,98951.75
2023-03-15T00:22:56.171Z,98943.59
2023-03-15T00:33:18.416Z,98940.34
2023-03-15T00:43:39.969Z,98940.94
2023-03-15T00:54:01.098Z,98941.25
2023-03-15T01:04:23.188Z,98944.56
2023-03-15T01:14:27.521Z,98946.00
2023-03-15T01:24:48.887Z,98938.97
2023-03-15T01:35:10.355Z,98951.41
2023-03-15T01:45:59.898Z,98942.63
2023-03-15T01:56:24.110Z,98934.50
2023-03-15T02:06:47.280Z,98954.72
2023-03-15T02:17:08.558Z,98945.13
2023-03-15T02:27:36.675Z,98940.59
2023-03-15T02:37:59.486Z,98938.63
2023-03-15T02:48:21.592Z,98939.88
2023-03-15T02:58:47.013Z,98932.19
2023-03-15T03:09:09.147Z,98920.84
2023-03-15T03:19:30.873Z,98933.81
2023-03-15T03:29:52.952Z,98910.41
2023-03-15T03:40:14.811Z,98930.66
2023-03-15T03:50:36.714Z,98941.28
2023-03-15T04:00:58.218Z,98930.13
2023-03-15T04:11:26.807Z,98934.72
2023-03-15T04:21:52.502Z,98932.72
2023-03-15T04:32:46.314Z,98931.38
2023-03-15T04:43:15.291Z,98945.91
2023-03-15T04:54:11.860Z,98944.91
2023-03-15T05:04:49.853Z,98954.03
2023-03-15T05:15:33.674Z,98967.09
2023-03-15T05:26:27.045Z,98988.47
2023-03-15T05:37:15.671Z,98999.69
2023-03-15T05:48:16.802Z,98981.44
2023-03-15T05:58:48.928Z,98968.38
2023-03-15T06:09:28.796Z,98959.78
2023-03-15T06:19:50.456Z,98971.66
2023-03-15T06:30:12.364Z,98981.19
2023-03-15T06:40:34.182Z,98975.22
2023-03-15T06:50:55.837Z,98957.16
2023-03-15T07:01:18.032Z,98959.03
2023-03-15T07:11:38.900Z,98945.16
2023-03-15T07:22:00.494Z,98938.78
2023-03-15T07:32:21.747Z,98951.66
2023-03-15T07:42:43.883Z,98965.31
2023-03-15T07:53:08.207Z,98956.84
2023-03-15T08:03:29.325Z,98955.88
2023-03-15T08:13:50.813Z,98952.22
2023-03-15T08:24:12.805Z,98941.81
2023-03-15T08:34:35.288Z,98938.28
2023-03-15T08:44:38.257Z,98933.38
2023-03-15T08:54:41.047Z,98931.69
2023-03-15T09:04:44.071Z,98904.97
2023-03-15T09:15:07.873Z,98897.97
2023-03-15T09:25:29.044Z,98915.59
2023-03-15T09:35:53.652Z,98901.78
2023-03-15T09:46:33.218Z,98880.78
2023-03-15T09:57:03.194Z,98886.66
2023-03-15T10:07:24.952Z,98877.22
2023-03-15T10:18:11.016Z,98869.59
2023-03-15T10:28:34.807Z,98874.88
2023-03-15T10:38:58.777Z,98862.94
2023-03-15T10:49:20.186Z,98863.09
2023-03-15T10:59:57.332Z,98858.94
2023-03-15T11:10:25.390Z,98846.31
2023-03-15T11:20:46.645Z,98862.63
2023-03-15T11:31:08.004Z,98844.94
2023-03-15T11:41:47.179Z,98878.97
2023-03-15T11:52:09.605Z,98875.44
2023-03-15T12:02:31.199Z,98866.25
2023-03-15T12:13:08.108Z,98842.84
2023-03-15T12:23:38.392Z,98832.44
2023-03-15T12:34:01.332Z,98816.16
2023-03-15T12:44:31.995Z,98823.91
2023-03-15T12:55:16.747Z,98825.16
2023-03-15T13:06:06.637Z,98825.75
2023-03-15T13:17:17.448Z,98813.16
2023-03-15T13:27:50.374Z,98829.69
2023-03-15T13:38:45.030Z,98833.81
2023-03-15T13:49:06.693Z,98824.59
2023-03-15T13:59:36.143Z,98823.81
2023-03-15T14:10:23.213Z,98809.69
2023-03-15T14:20:53.552Z,98801.03
2023-03-15T14:31:32.249Z,98796.81
2023-03-15T14:41:53.549Z,98802.47
2023-03-15T14:52:15.297Z,98809.66
2023-03-15T15:02:37.653Z,98811.38
2023-03-15T15:13:05.953Z,98812.75
2023-03-15T15:23:41.871Z,98833.78
2023-03-15T15:34:10.354Z,98830.88
2023-03-15T15:44:31.683Z,98832.25
2023-03-15T15:54:53.269Z,98840.91
2023-03-15T16:05:14.872Z,98844.78
2023-03-15T16:15:36.561Z,98860.22
2023-03-15T16:25:58.265Z,98863.91
2023-03-15T16:36:22.341Z,98866.78
2023-03-15T16:46:44.364Z,98871.41
2023-03-15T16:57:16.050Z,98876.50
2023-03-15T17:07:39.586Z,98885.38
2023-03-15T17:18:03.321Z,98878.03
2023-03-15T17:28:24.867Z,98892.31
2023-03-15T17:38:47.323Z,98893.13
2023-03-15T17:49:10.029Z,98888.78
2023-03-15T17:59:31.487Z,98900.59
2023-03-15T18:09:53.091Z,98893.28
2023-03-15T18:20:16.121Z,98911.41
2023-03-15T18:30:37.239Z,98899.72
2023-03-15T18:40:59.430Z,98912.34
2023-03-15T18:51:25.113Z,98906.66
2023-03-15T19:01:46.849Z,98912.88
2023-03-15T19:12:08.787Z,98924.44
2023-03-15T19:22:31.423Z,98928.53
2023-03-15T19:32:52.824Z,98925.66
2023-03-15T19:43:15.127Z,98932.75
2023-03-15T19:53:36.267Z,98934.09
2023-03-15T20:03:58.318Z,98918.63
2023-03-15T20:14:20.823Z,98928.38
2023-03-15T20:24:44.308Z,98926.19
2023-03-15T20:35:09.224Z,98918.72
2023-03-15T20:45:33.382Z,98912.81
2023-03-15T20:55:54.759Z,98909.28
2023-03-15T21:06:15.764Z,98906.44
2023-03-15T21:16:37.278Z,98909.16
2023-03-15T21:26:58.924Z,98908.59
2023-03-15T21:37:20.315Z,98913.69
2023-03-15T21:47:45.876Z,98921.72
2023-03-15T21:58:07.031Z,98927.78
2023-03-15T22:08:28.906Z,98915.44
2023-03-15T22:18:50.243Z,98914.13
2023-03-15T22:29:11.997Z,98927.72
2023-03-15T22:39:34.096Z,98920.44
2023-03-15T22:49:55.455Z,98926.50
2023-03-15T23:00:22.134Z,98926.00
2023-03-15T23:10:43.325Z,98938.75
2023-03-15T23:21:12.071Z,98927.66
2023-03-15T23:31:33.200Z,98917.41
2023-03-15T23:41:57.864Z,98920.41
2023-03-15T23:52:19.399Z,98913.75
